Time;durP1;ratioP1;P1;durP2;ratioP2;P2;SDS_P1;SDS_P2;PMS_P1;PMS_P2;Temp;Humidity;BMP_temperature;BMP_pressure;BME280_temperature;BME280_humidity;BME280_pressure;Samples;Min_cycle;Max_cycle;Signal;HPM_P1;HPM_P2
2023/07/19 00:01:33;;;;;;;4.25;1.63;;;;;;;;;;6065864;23;20419;-84
2023/07/19 00:03:58;;;;;;;3.00;1.48;;;;;;;;;;6064433;23;20009;-84
2023/07/19 00:06:23;;;;;;;3.78;1.27;;;;;;;;;;6088340;23;20007;-84
2023/07/19 00:08:49;;;;;;;3.15;1.65;;;;;;;;;;6087820;23;20011;-84
2023/07/19 00:11:14;;;;;;;6.32;1.60;;;;;;;;;;6064957;23;20003;-83
2023/07/19 00:13:40;;;;;;;3.97;1.52;;;;;;;;;;6067833;23;20046;-84
2023/07/19 00:16:05;;;;;;;4.13;1.30;;;;;;;;;;6070182;23;20010;-84
2023/07/19 00:18:31;;;;;;;4.95;1.38;;;;;;;;;;6069240;23;20010;-83
2023/07/19 00:20:59;;;;;;;2.88;1.70;;;;;;;;;;6069359;23;20054;-84
2023/07/19 00:23:25;;;;;;;8.10;1.70;;;;;;;;;;6070422;23;20002;-84
2023/07/19 00:25:50;;;;;;;6.40;1.60;;;;;;;;;;6071686;23;20003;-84
2023/07/19 00:28:16;;;;;;;1.75;1.27;;;;;;;;;;6071515;23;20004;-84
2023/07/19 00:30:42;;;;;;;4.20;1.30;;;;;;;;;;6070935;23;20010;-84
2023/07/19 00:33:08;;;;;;;5.05;1.88;;;;;;;;;;6067691;23;20561;-84
2023/07/19 00:35:33;;;;;;;1.83;1.23;;;;;;;;;;6068834;23;20062;-84
2023/07/19 00:37:59;;;;;;;6.47;2.05;;;;;;;;;;6093711;23;20381;-84
2023/07/19 00:40:24;;;;;;;4.63;1.70;;;;;;;;;;6068645;23;19998;-84
2023/07/19 00:42:56;;;;;;;5.72;1.58;;;;;;;;;;6090941;23;20086;-84
2023/07/19 00:45:22;;;;;;;3.28;1.55;;;;;;;;;;6068904;23;20257;-84
2023/07/19 00:47:48;;;;;;;2.67;1.52;;;;;;;;;;6068809;23;20067;-84
2023/07/19 00:50:13;;;;;;;3.47;1.50;;;;;;;;;;6066791;23;20010;-83
2023/07/19 00:52:39;;;;;;;3.92;1.42;;;;;;;;;;6066848;23;20009;-84
2023/07/19 00:55:07;;;;;;;5.18;1.73;;;;;;;;;;6043099;23;19995;-84
2023/07/19 00:57:32;;;;;;;6.85;1.45;;;;;;;;;;6043545;23;20010;-84
2023/07/19 00:59:58;;;;;;;8.32;2.35;;;;;;;;;;6068640;23;20003;-84
2023/07/19 01:02:23;;;;;;;4.85;1.83;;;;;;;;;;6043178;23;20087;-84
2023/07/19 01:04:49;;;;;;;5.38;2.20;;;;;;;;;;6043033;23;20106;-84
2023/07/19 01:07:14;;;;;;;4.72;1.92;;;;;;;;;;6043319;23;20772;-85
2023/07/19 01:09:40;;;;;;;4.30;2.08;;;;;;;;;;6042138;23;20085;-84
2023/07/19 01:12:06;;;;;;;3.22;1.67;;;;;;;;;;6041528;23;20037;-83
2023/07/19 01:14:31;;;;;;;3.13;1.60;;;;;;;;;;6041205;23;20336;-84
2023/07/19 01:16:56;;;;;;;4.70;2.10;;;;;;;;;;6067614;23;20397;-84
2023/07/19 01:19:22;;;;;;;6.20;1.85;;;;;;;;;;6041641;23;20007;-84
2023/07/19 01:21:48;;;;;;;3.03;2.00;;;;;;;;;;6066214;23;20007;-84
2023/07/19 01:24:13;;;;;;;3.63;1.85;;;;;;;;;;6042734;23;20002;-85
2023/07/19 01:26:39;;;;;;;2.60;1.70;;;;;;;;;;6043081;23;20017;-85
2023/07/19 01:29:05;;;;;;;5.75;1.73;;;;;;;;;;6067873;23;19998;-84
2023/07/19 01:31:30;;;;;;;5.68;2.13;;;;;;;;;;6067437;23;20026;-84
2023/07/19 01:33:58;;;;;;;5.75;1.80;;;;;;;;;;6066604;23;20006;-84
2023/07/19 01:36:25;;;;;;;4.32;1.73;;;;;;;;;;6042858;23;20006;-84
2023/07/19 01:38:51;;;;;;;6.40;1.90;;;;;;;;;;6044138;23;20013;-84
2023/07/19 01:41:16;;;;;;;3.50;2.00;;;;;;;;;;6070144;23;20003;-84
2023/07/19 01:43:41;;;;;;;3.38;1.65;;;;;;;;;;6069374;23;20070;-84
2023/07/19 01:46:07;;;;;;;6.07;2.17;;;;;;;;;;6044103;23;20031;-84
2023/07/19 01:48:33;;;;;;;3.92;1.88;;;;;;;;;;6047165;23;20003;-84
2023/07/19 01:50:58;;;;;;;2.38;1.50;;;;;;;;;;6071512;23;20048;-84
2023/07/19 01:53:24;;;;;;;5.88;2.00;;;;;;;;;;6047902;23;20019;-85
2023/07/19 01:55:49;;;;;;;3.88;1.95;;;;;;;;;;6072572;23;20082;-85
2023/07/19 01:58:15;;;;;;;5.57;2.00;;;;;;;;;;6071104;23;20002;-84
2023/07/19 02:00:40;;;;;;;5.85;1.85;;;;;;;;;;6045526;23;20082;-84
2023/07/19 02:03:06;;;;;;;5.60;1.92;;;;;;;;;;6043271;23;20420;-84
2023/07/19 02:05:31;;;;;;;6.45;1.88;;;;;;;;;;6046657;23;20007;-84
2023/07/19 02:07:59;;;;;;;5.68;1.88;;;;;;;;;;6067198;23;20003;-84
2023/07/19 02:10:24;;;;;;;3.47;1.98;;;;;;;;;;6065627;23;20021;-84
2023/07/19 02:12:49;;;;;;;6.43;2.28;;;;;;;;;;6042455;23;19999;-85
2023/07/19 02:15:15;;;;;;;3.58;1.83;;;;;;;;;;6042697;23;20037;-84
2023/07/19 02:17:40;;;;;;;4.22;1.80;;;;;;;;;;6042597;23;20003;-84
2023/07/19 02:20:06;;;;;;;5.22;1.77;;;;;;;;;;6066233;23;20009;-84
2023/07/19 02:22:34;;;;;;;5.03;2.00;;;;;;;;;;6067760;23;20002;-84
2023/07/19 02:24:59;;;;;;;3.75;1.73;;;;;;;;;;6041595;23;20006;-84
2023/07/19 02:27:24;;;;;;;8.52;2.03;;;;;;;;;;6066272;23;20006;-84
2023/07/19 02:29:52;;;;;;;11.02;2.08;;;;;;;;;;6066078;23;20388;-84
2023/07/19 02:32:17;;;;;;;5.03;2.30;;;;;;;;;;6042840;23;20288;-84
2023/07/19 02:34:43;;;;;;;3.70;1.90;;;;;;;;;;6042553;23;20045;-84
2023/07/19 02:37:08;;;;;;;3.05;1.90;;;;;;;;;;6065967;23;20113;-84
2023/07/19 02:39:33;;;;;;;4.47;2.28;;;;;;;;;;6042625;23;20435;-85
2023/07/19 02:41:58;;;;;;;3.35;1.65;;;;;;;;;;6042512;23;20105;-83
2023/07/19 02:44:24;;;;;;;2.92;1.75;;;;;;;;;;6058878;23;20050;-84
2023/07/19 02:46:49;;;;;;;2.85;1.73;;;;;;;;;;6066333;23;20010;-84
2023/07/19 02:49:17;;;;;;;8.88;2.53;;;;;;;;;;6066319;23;19998;-84
2023/07/19 02:51:44;;;;;;;6.00;2.30;;;;;;;;;;6066215;23;20018;-84
2023/07/19 02:54:10;;;;;;;3.47;2.25;;;;;;;;;;6065316;23;19999;-84
2023/07/19 02:56:35;;;;;;;5.50;2.78;;;;;;;;;;6066143;23;20026;-84
2023/07/19 02:59:00;;;;;;;4.30;2.13;;;;;;;;;;6091196;23;20035;-84
2023/07/19 03:01:26;;;;;;;4.60;2.30;;;;;;;;;;6066832;23;20019;-84
2023/07/19 03:03:51;;;;;;;4.43;2.00;;;;;;;;;;6066362;23;20023;-84
2023/07/19 03:06:17;;;;;;;4.95;2.40;;;;;;;;;;6068078;23;20083;-84
2023/07/19 03:08:43;;;;;;;7.50;2.60;;;;;;;;;;6069730;23;20537;-84
2023/07/19 03:11:08;;;;;;;3.25;1.98;;;;;;;;;;6067305;23;20110;-84
2023/07/19 03:13:34;;;;;;;9.18;2.17;;;;;;;;;;6067585;23;20073;-84
2023/07/19 03:15:59;;;;;;;5.35;2.08;;;;;;;;;;6092639;23;20007;-84
2023/07/19 03:18:25;;;;;;;4.65;2.28;;;;;;;;;;6069638;23;20030;-84
2023/07/19 03:21:00;;;;;;;7.57;2.40;;;;;;;;;;6070391;23;20510;-84
2023/07/19 03:23:27;;;;;;;3.85;1.75;;;;;;;;;;6068874;23;20006;-84
2023/07/19 03:25:57;;;;;;;5.03;2.10;;;;;;;;;;6091887;23;20007;-84
2023/07/19 03:28:23;;;;;;;4.63;2.13;;;;;;;;;;6070706;23;20428;-84
2023/07/19 03:30:49;;;;;;;4.65;1.70;;;;;;;;;;6068099;23;20081;-84
2023/07/19 03:33:14;;;;;;;10.10;2.30;;;;;;;;;;6066130;23;20003;-84
2023/07/19 03:35:40;;;;;;;4.93;1.80;;;;;;;;;;6066721;23;20003;-84
2023/07/19 03:38:05;;;;;;;6.20;2.25;;;;;;;;;;6065789;23;20107;-84
2023/07/19 03:40:30;;;;;;;3.67;1.90;;;;;;;;;;6067383;23;19998;-84
2023/07/19 03:42:56;;;;;;;3.00;1.80;;;;;;;;;;6088865;23;20039;-84
2023/07/19 03:45:21;;;;;;;3.95;1.95;;;;;;;;;;6041948;23;20007;-84
2023/07/19 03:47:47;;;;;;;5.82;1.95;;;;;;;;;;6065847;23;20097;-85
2023/07/19 03:50:12;;;;;;;5.63;2.50;;;;;;;;;;6067617;23;20009;-85
2023/07/19 03:52:37;;;;;;;6.80;2.05;;;;;;;;;;6041482;23;20082;-85
2023/07/19 03:55:04;;;;;;;7.93;2.03;;;;;;;;;;6041874;23;20003;-84
2023/07/19 03:57:29;;;;;;;4.20;2.17;;;;;;;;;;6042081;23;20003;-84
2023/07/19 03:59:57;;;;;;;6.22;2.90;;;;;;;;;;6042058;23;20013;-84
2023/07/19 04:02:22;;;;;;;5.07;2.28;;;;;;;;;;6067207;23;20013;-84
2023/07/19 04:04:49;;;;;;;7.68;2.45;;;;;;;;;;6041799;23;20034;-84
2023/07/19 04:07:16;;;;;;;4.35;2.40;;;;;;;;;;6043085;23;20031;-84
2023/07/19 04:09:44;;;;;;;6.53;2.22;;;;;;;;;;6043791;23;20316;-84
2023/07/19 04:12:09;;;;;;;5.00;2.50;;;;;;;;;;6069310;23;20268;-84
2023/07/19 04:14:34;;;;;;;6.63;3.05;;;;;;;;;;6043703;23;20085;-85
2023/07/19 04:16:59;;;;;;;5.07;2.65;;;;;;;;;;6043785;23;20003;-85
2023/07/19 04:19:25;;;;;;;4.13;2.30;;;;;;;;;;6042483;23;20034;-84
2023/07/19 04:21:50;;;;;;;4.90;2.08;;;;;;;;;;6068354;23;20006;-84
2023/07/19 04:24:15;;;;;;;6.47;2.20;;;;;;;;;;6043703;23;20089;-85
2023/07/19 04:26:41;;;;;;;6.90;2.35;;;;;;;;;;6067968;23;20434;-84
2023/07/19 04:29:06;;;;;;;8.25;2.58;;;;;;;;;;6044496;23;20070;-84
2023/07/19 04:31:31;;;;;;;6.63;2.40;;;;;;;;;;6043546;23;20071;-84
2023/07/19 04:33:57;;;;;;;5.38;2.15;;;;;;;;;;6043882;23;20383;-84
2023/07/19 04:36:22;;;;;;;7.43;2.28;;;;;;;;;;6043911;23;20026;-84
2023/07/19 04:38:47;;;;;;;8.63;2.85;;;;;;;;;;6044610;23;20435;-84
2023/07/19 04:41:13;;;;;;;6.65;2.35;;;;;;;;;;6043792;23;20003;-84
2023/07/19 04:43:40;;;;;;;5.05;2.35;;;;;;;;;;6051205;23;20015;-83
2023/07/19 04:46:06;;;;;;;3.33;1.98;;;;;;;;;;6069873;23;20333;-84
2023/07/19 04:48:31;;;;;;;4.53;2.72;;;;;;;;;;6069793;23;20007;-84
2023/07/19 04:50:57;;;;;;;4.20;2.10;;;;;;;;;;6069487;23;20074;-84
2023/07/19 04:53:22;;;;;;;9.20;3.65;;;;;;;;;;6072076;23;20002;-84
2023/07/19 04:55:50;;;;;;;3.65;2.08;;;;;;;;;;6067563;23;20011;-84
2023/07/19 04:58:15;;;;;;;4.60;2.17;;;;;;;;;;6068677;23;20002;-84
2023/07/19 05:00:40;;;;;;;5.22;2.78;;;;;;;;;;6067310;23;20029;-84
2023/07/19 05:03:06;;;;;;;3.25;1.83;;;;;;;;;;6068422;23;19999;-84
2023/07/19 05:05:31;;;;;;;7.95;2.55;;;;;;;;;;6067935;23;20003;-83
2023/07/19 05:07:58;;;;;;;7.28;2.30;;;;;;;;;;6067038;23;20002;-84
2023/07/19 05:10:23;;;;;;;4.25;2.10;;;;;;;;;;6066823;23;20007;-84
2023/07/19 05:12:48;;;;;;;5.95;2.72;;;;;;;;;;6068573;23;20081;-84
2023/07/19 05:15:14;;;;;;;4.03;2.42;;;;;;;;;;6067381;23;20009;-84
2023/07/19 05:17:39;;;;;;;4.88;2.50;;;;;;;;;;6066047;23;19999;-84
2023/07/19 05:20:05;;;;;;;5.25;2.35;;;;;;;;;;6067039;23;20009;-84
2023/07/19 05:22:31;;;;;;;6.57;3.13;;;;;;;;;;6068472;23;20404;-84
2023/07/19 05:24:57;;;;;;;7.90;2.45;;;;;;;;;;6066775;23;20328;-84
2023/07/19 05:27:22;;;;;;;6.45;2.70;;;;;;;;;;6066734;23;20486;-84
2023/07/19 05:29:47;;;;;;;5.32;2.85;;;;;;;;;;6066828;23;20385;-84
2023/07/19 05:32:12;;;;;;;8.02;3.10;;;;;;;;;;6067052;23;20426;-83
2023/07/19 05:34:38;;;;;;;5.18;2.97;;;;;;;;;;6066735;23;20010;-83
2023/07/19 05:37:03;;;;;;;4.55;3.20;;;;;;;;;;6066295;23;20015;-84
2023/07/19 05:39:29;;;;;;;7.78;3.60;;;;;;;;;;6090964;23;20034;-84
2023/07/19 05:41:54;;;;;;;8.18;3.40;;;;;;;;;;6066225;23;19998;-83
2023/07/19 05:44:19;;;;;;;9.95;3.13;;;;;;;;;;6066436;23;20093;-84
2023/07/19 05:46:44;;;;;;;7.45;2.95;;;;;;;;;;6066394;23;20110;-84
2023/07/19 05:49:12;;;;;;;8.90;2.53;;;;;;;;;;6065727;23;20007;-83
2023/07/19 05:51:40;;;;;;;14.00;3.00;;;;;;;;;;6066344;23;20040;-84
2023/07/19 05:54:08;;;;;;;7.70;3.13;;;;;;;;;;6066191;23;20090;-84
2023/07/19 05:56:33;;;;;;;6.15;3.00;;;;;;;;;;6068446;23;20025;-84
2023/07/19 05:59:01;;;;;;;7.05;3.00;;;;;;;;;;6068255;23;20432;-83
2023/07/19 06:01:26;;;;;;;4.78;2.70;;;;;;;;;;6090736;23;19995;-83
2023/07/19 06:03:51;;;;;;;6.32;3.13;;;;;;;;;;6066590;23;20066;-84
2023/07/19 06:06:19;;;;;;;4.95;2.65;;;;;;;;;;6090611;23;20084;-84
2023/07/19 06:08:44;;;;;;;9.45;3.03;;;;;;;;;;6069230;23;19991;-84
2023/07/19 06:11:10;;;;;;;7.97;2.45;;;;;;;;;;6068769;23;20006;-84
2023/07/19 06:13:36;;;;;;;11.60;2.63;;;;;;;;;;6073928;23;20415;-86
2023/07/19 06:16:01;;;;;;;4.88;2.47;;;;;;;;;;6101095;23;20023;-84
2023/07/19 06:18:29;;;;;;;9.20;2.92;;;;;;;;;;6096408;23;20371;-83
2023/07/19 06:20:57;;;;;;;5.57;2.30;;;;;;;;;;6070085;23;20165;-84
2023/07/19 06:23:22;;;;;;;7.10;2.45;;;;;;;;;;6070605;23;20002;-84
2023/07/19 06:25:48;;;;;;;5.95;2.67;;;;;;;;;;6066810;23;20053;-85
2023/07/19 06:28:14;;;;;;;10.20;2.95;;;;;;;;;;6066512;23;20006;-84
2023/07/19 06:30:40;;;;;;;4.80;2.30;;;;;;;;;;6067715;23;20002;-84
2023/07/19 06:33:05;;;;;;;6.55;2.58;;;;;;;;;;6065147;23;20010;-84
2023/07/19 06:35:30;;;;;;;6.90;2.42;;;;;;;;;;6067008;23;19998;-83
2023/07/19 06:37:56;;;;;;;5.88;2.40;;;;;;;;;;6066116;23;19999;-84
2023/07/19 06:40:21;;;;;;;9.07;2.17;;;;;;;;;;6067680;23;20003;-83
2023/07/19 06:42:46;;;;;;;7.45;2.47;;;;;;;;;;6066263;23;20018;-84
2023/07/19 06:45:11;;;;;;;5.18;2.70;;;;;;;;;;6042294;23;20028;-84
2023/07/19 06:47:39;;;;;;;6.88;2.95;;;;;;;;;;6067941;23;19999;-85
2023/07/19 06:50:04;;;;;;;8.63;2.65;;;;;;;;;;6041835;23;20054;-84
2023/07/19 06:52:30;;;;;;;5.70;2.10;;;;;;;;;;6067648;23;20102;-84
2023/07/19 06:54:55;;;;;;;6.55;2.65;;;;;;;;;;6042073;23;19995;-84
2023/07/19 06:57:21;;;;;;;5.15;2.63;;;;;;;;;;6041743;23;20132;-84
2023/07/19 06:59:49;;;;;;;5.45;2.13;;;;;;;;;;6066212;23;20007;-84
2023/07/19 07:02:14;;;;;;;4.10;1.95;;;;;;;;;;6066691;23;20010;-84
2023/07/19 07:04:39;;;;;;;8.65;2.53;;;;;;;;;;6040755;23;20003;-83
2023/07/19 07:07:05;;;;;;;9.30;2.60;;;;;;;;;;6065607;23;20010;-84
2023/07/19 07:09:30;;;;;;;6.00;2.15;;;;;;;;;;6041654;23;20062;-84
2023/07/19 07:11:56;;;;;;;5.95;2.38;;;;;;;;;;6041729;23;20007;-83
2023/07/19 07:14:24;;;;;;;5.63;2.33;;;;;;;;;;6041123;23;20067;-84
2023/07/19 07:16:49;;;;;;;6.75;1.75;;;;;;;;;;6041753;23;20024;-84
2023/07/19 07:19:14;;;;;;;6.15;1.88;;;;;;;;;;6067163;23;20372;-84
2023/07/19 07:21:40;;;;;;;5.80;1.70;;;;;;;;;;6041395;23;20515;-84
2023/07/19 07:24:05;;;;;;;6.70;1.77;;;;;;;;;;6041706;23;20458;-84
2023/07/19 07:26:33;;;;;;;4.43;1.63;;;;;;;;;;6042492;23;20007;-82
2023/07/19 07:28:58;;;;;;;5.43;1.63;;;;;;;;;;6042294;23;19995;-83
2023/07/19 07:31:23;;;;;;;6.93;1.98;;;;;;;;;;6041585;23;20009;-83
2023/07/19 07:33:49;;;;;;;5.95;1.85;;;;;;;;;;6040325;23;20013;-83
2023/07/19 07:36:14;;;;;;;6.72;1.83;;;;;;;;;;6041903;23;20032;-83
2023/07/19 07:38:40;;;;;;;6.38;1.60;;;;;;;;;;6066995;23;20093;-82
2023/07/19 07:41:05;;;;;;;3.78;1.25;;;;;;;;;;6064738;23;20042;-82
2023/07/19 07:43:30;;;;;;;4.95;1.52;;;;;;;;;;6067288;23;20006;-84
2023/07/19 07:45:56;;;;;;;5.18;1.52;;;;;;;;;;6043945;23;20327;-84
2023/07/19 07:48:22;;;;;;;4.22;1.38;;;;;;;;;;6042363;23;20006;-84
2023/07/19 07:50:51;;;;;;;8.00;1.52;;;;;;;;;;6042050;23;20033;-84
2023/07/19 07:53:20;;;;;;;4.35;1.58;;;;;;;;;;6045093;23;20055;-84
2023/07/19 07:55:46;;;;;;;4.30;1.65;;;;;;;;;;6045710;23;20027;-84
2023/07/19 07:58:15;;;;;;;8.23;1.70;;;;;;;;;;6045738;23;20003;-85
2023/07/19 08:00:40;;;;;;;6.05;1.50;;;;;;;;;;6067760;23;19999;-84
2023/07/19 08:03:06;;;;;;;6.22;1.85;;;;;;;;;;6044008;23;20003;-84
2023/07/19 08:05:32;;;;;;;6.18;1.88;;;;;;;;;;6044680;23;20424;-85
2023/07/19 08:07:57;;;;;;;5.75;2.17;;;;;;;;;;6041266;23;20006;-84
2023/07/19 08:10:22;;;;;;;4.22;1.60;;;;;;;;;;6039700;23;20014;-83
2023/07/19 08:12:48;;;;;;;3.95;1.30;;;;;;;;;;6041160;23;20415;-85
2023/07/19 08:15:13;;;;;;;5.93;1.25;;;;;;;;;;6041168;23;20085;-85
2023/07/19 08:17:39;;;;;;;4.90;1.10;;;;;;;;;;6041974;23;20476;-84
2023/07/19 08:20:09;;;;;;;3.88;1.20;;;;;;;;;;6041609;23;19999;-84
2023/07/19 08:22:35;;;;;;;8.13;1.92;;;;;;;;;;6041476;23;20047;-85
2023/07/19 08:25:00;;;;;;;6.65;2.03;;;;;;;;;;6067224;23;19999;-84
2023/07/19 08:27:26;;;;;;;7.00;1.67;;;;;;;;;;6041475;23;20201;-84
2023/07/19 08:29:52;;;;;;;2.08;1.08;;;;;;;;;;6065608;23;20018;-85
2023/07/19 08:32:17;;;;;;;7.03;1.42;;;;;;;;;;6041443;23;20328;-84
2023/07/19 08:34:43;;;;;;;5.18;1.50;;;;;;;;;;6041667;23;20007;-85
2023/07/19 08:37:08;;;;;;;10.25;1.55;;;;;;;;;;6065419;23;20014;-84
2023/07/19 08:39:36;;;;;;;4.45;1.30;;;;;;;;;;6067107;23;20095;-85
2023/07/19 08:42:02;;;;;;;3.95;1.10;;;;;;;;;;6041501;23;20364;-85
2023/07/19 08:44:31;;;;;;;2.13;1.00;;;;;;;;;;6066901;23;20013;-85
2023/07/19 08:46:57;;;;;;;4.03;1.40;;;;;;;;;;6065219;23;20026;-84
2023/07/19 08:49:23;;;;;;;2.85;1.00;;;;;;;;;;6067026;23;20427;-85
2023/07/19 08:51:48;;;;;;;8.02;1.63;;;;;;;;;;6067368;23;20045;-85
2023/07/19 08:54:14;;;;;;;2.17;1.05;;;;;;;;;;6068532;23;20025;-84
2023/07/19 08:56:42;;;;;;;6.78;1.60;;;;;;;;;;6043537;23;20730;-85
2023/07/19 08:59:07;;;;;;;5.03;1.10;;;;;;;;;;6043273;23;20007;-85
2023/07/19 09:01:33;;;;;;;4.63;1.70;;;;;;;;;;6069584;23;20014;-85
2023/07/19 09:03:58;;;;;;;8.52;1.30;;;;;;;;;;6067782;23;20360;-85
2023/07/19 09:06:24;;;;;;;5.78;1.55;;;;;;;;;;6043524;23;19998;-85
2023/07/19 09:08:51;;;;;;;5.03;1.38;;;;;;;;;;6043450;23;20026;-85
2023/07/19 09:11:22;;;;;;;14.45;1.70;;;;;;;;;;6069880;23;20305;-85
2023/07/19 09:13:53;;;;;;;6.88;1.30;;;;;;;;;;6042652;23;20508;-84
2023/07/19 09:16:24;;;;;;;5.88;1.52;;;;;;;;;;6043701;23;20080;-86
2023/07/19 09:18:50;;;;;;;6.18;1.25;;;;;;;;;;6066416;23;20056;-86
2023/07/19 09:21:15;;;;;;;4.95;1.55;;;;;;;;;;6044219;23;20086;-86
2023/07/19 09:23:41;;;;;;;4.00;1.02;;;;;;;;;;6070598;23;20074;-86
2023/07/19 09:26:06;;;;;;;3.83;1.15;;;;;;;;;;6067894;23;20062;-87
2023/07/19 09:28:35;;;;;;;2.28;0.90;;;;;;;;;;6068482;23;20025;-86
2023/07/19 09:31:06;;;;;;;3.05;1.55;;;;;;;;;;6068793;23;19991;-86
2023/07/19 09:33:34;;;;;;;3.97;1.00;;;;;;;;;;6066172;23;20007;-86
2023/07/19 09:35:59;;;;;;;3.78;0.73;;;;;;;;;;6042014;23;20021;-86
2023/07/19 09:38:25;;;;;;;2.17;0.70;;;;;;;;;;6067832;23;20653;-87
2023/07/19 09:40:51;;;;;;;1.55;0.52;;;;;;;;;;6067861;23;20010;-87
2023/07/19 09:43:16;;;;;;;4.13;1.00;;;;;;;;;;6070002;23;20015;-87
2023/07/19 09:45:43;;;;;;;4.90;0.80;;;;;;;;;;6066244;23;20501;-86
2023/07/19 09:48:08;;;;;;;1.70;0.90;;;;;;;;;;6066468;23;19998;-85
2023/07/19 09:50:37;;;;;;;3.55;0.90;;;;;;;;;;6068194;23;20125;-87
2023/07/19 09:53:02;;;;;;;1.42;0.60;;;;;;;;;;6066002;23;20319;-86
2023/07/19 09:55:28;;;;;;;4.78;1.00;;;;;;;;;;6066609;23;19999;-86
2023/07/19 09:57:55;;;;;;;5.00;1.10;;;;;;;;;;6066403;23;20007;-86
2023/07/19 10:00:21;;;;;;;3.28;1.00;;;;;;;;;;6066377;23;20007;-85
2023/07/19 10:02:46;;;;;;;4.57;1.08;;;;;;;;;;6089089;23;20003;-86
2023/07/19 10:05:11;;;;;;;4.22;0.90;;;;;;;;;;6067539;23;20011;-87
2023/07/19 10:07:39;;;;;;;2.72;0.95;;;;;;;;;;6066887;23;20089;-87
2023/07/19 10:10:05;;;;;;;6.30;1.48;;;;;;;;;;6068907;23;20003;-87
2023/07/19 10:12:31;;;;;;;1.90;0.82;;;;;;;;;;6066526;23;20006;-87
2023/07/19 10:15:01;;;;;;;4.38;1.42;;;;;;;;;;6066800;23;20010;-85
2023/07/19 10:17:26;;;;;;;2.83;1.00;;;;;;;;;;6068134;23;19995;-87
2023/07/19 10:20:12;;;;;;;4.82;1.50;;;;;;;;;;6066996;23;20057;-87
2023/07/19 10:22:50;;;;;;;2.80;1.20;;;;;;;;;;6066817;23;20010;-86
2023/07/19 10:25:22;;;;;;;2.85;1.10;;;;;;;;;;6065110;23;20003;-86
2023/07/19 10:28:01;;;;;;;1.95;1.00;;;;;;;;;;6065968;23;20003;-87
2023/07/19 10:30:45;;;;;;;2.50;0.95;;;;;;;;;;6065853;23;20454;-87
2023/07/19 10:33:11;;;;;;;1.58;0.90;;;;;;;;;;6065565;23;19999;-86
2023/07/19 10:35:36;;;;;;;4.68;0.98;;;;;;;;;;6067004;23;20003;-87
2023/07/19 10:38:01;;;;;;;4.03;1.40;;;;;;;;;;6065675;23;20037;-87
2023/07/19 10:40:27;;;;;;;2.58;1.08;;;;;;;;;;6067363;23;19999;-87
2023/07/19 10:42:52;;;;;;;7.72;1.08;;;;;;;;;;6066673;23;20320;-87
2023/07/19 10:45:18;;;;;;;3.80;1.10;;;;;;;;;;6067957;23;20009;-87
2023/07/19 10:47:46;;;;;;;4.15;1.65;;;;;;;;;;6041820;23;20019;-87
2023/07/19 10:50:11;;;;;;;4.53;1.15;;;;;;;;;;6043800;23;20009;-87
2023/07/19 10:52:37;;;;;;;1.58;1.10;;;;;;;;;;6043752;23;19999;-87
2023/07/19 10:55:05;;;;;;;4.68;1.00;;;;;;;;;;6068594;23;20003;-87
2023/07/19 10:57:32;;;;;;;2.03;0.93;;;;;;;;;;6046402;23;19998;-87
2023/07/19 10:59:57;;;;;;;1.92;0.75;;;;;;;;;;6070039;23;20009;-83
2023/07/19 11:02:24;;;;;;;3.13;1.40;;;;;;;;;;6045884;23;19998;-83
2023/07/19 11:04:49;;;;;;;1.98;0.82;;;;;;;;;;6054233;23;20006;-85
2023/07/19 11:07:15;;;;;;;13.88;1.52;;;;;;;;;;6070818;23;20011;-86
2023/07/19 11:09:51;;;;;;;3.33;1.10;;;;;;;;;;6069052;23;19995;-87
2023/07/19 11:12:17;;;;;;;4.45;1.30;;;;;;;;;;6045043;23;20013;-84
2023/07/19 11:14:45;;;;;;;2.92;0.98;;;;;;;;;;6043398;23;20074;-86
2023/07/19 11:17:24;;;;;;;3.80;0.95;;;;;;;;;;6065002;23;20023;-86
2023/07/19 11:19:57;;;;;;;1.98;0.98;;;;;;;;;;6067905;23;20380;-85
2023/07/19 11:22:25;;;;;;;2.03;1.15;;;;;;;;;;6041662;23;20094;-86
2023/07/19 11:24:52;;;;;;;2.40;1.02;;;;;;;;;;6066847;23;20065;-87
2023/07/19 11:27:18;;;;;;;4.05;0.82;;;;;;;;;;6041719;23;20088;-86
2023/07/19 11:29:47;;;;;;;1.70;0.90;;;;;;;;;;6066205;23;20320;-86
2023/07/19 11:32:18;;;;;;;5.38;1.25;;;;;;;;;;6041618;23;20212;-86
2023/07/19 11:34:44;;;;;;;6.45;0.85;;;;;;;;;;6042134;23;20344;-87
2023/07/19 11:37:15;;;;;;;2.78;1.30;;;;;;;;;;6067326;23;19999;-86
2023/07/19 11:39:40;;;;;;;3.28;1.35;;;;;;;;;;6041809;23;20007;-86
2023/07/19 11:42:05;;;;;;;2.53;1.15;;;;;;;;;;6067374;23;20010;-86
2023/07/19 11:44:31;;;;;;;3.13;0.73;;;;;;;;;;6060595;23;20021;-86
2023/07/19 11:46:57;;;;;;;4.30;0.95;;;;;;;;;;6089440;23;20013;-86
2023/07/19 11:49:23;;;;;;;2.75;1.08;;;;;;;;;;6065653;23;20058;-86
2023/07/19 11:51:49;;;;;;;2.08;0.93;;;;;;;;;;6089567;23;20003;-86
2023/07/19 11:54:15;;;;;;;13.57;1.10;;;;;;;;;;6066035;23;20325;-86
2023/07/19 11:56:40;;;;;;;11.52;1.10;;;;;;;;;;6065285;23;20057;-86
2023/07/19 11:59:05;;;;;;;1.75;0.60;;;;;;;;;;6066900;23;20003;-86
2023/07/19 12:01:33;;;;;;;0.90;0.50;;;;;;;;;;6065905;23;20427;-87
2023/07/19 12:04:01;;;;;;;4.47;0.30;;;;;;;;;;6090071;23;20444;-88
2023/07/19 12:06:26;;;;;;;4.07;0.50;;;;;;;;;;6065436;23;20090;-88
2023/07/19 12:08:52;;;;;;;5.60;0.35;;;;;;;;;;6066557;23;20094;-87
2023/07/19 12:11:19;;;;;;;0.65;0.30;;;;;;;;;;6090594;23;20058;-88
2023/07/19 12:13:45;;;;;;;1.65;0.40;;;;;;;;;;6068154;23;19991;-87
2023/07/19 12:16:10;;;;;;;1.30;0.40;;;;;;;;;;6066365;23;20009;-87
2023/07/19 12:18:35;;;;;;;18.33;0.98;;;;;;;;;;6067592;23;20392;-88
2023/07/19 12:21:00;;;;;;;4.30;0.50;;;;;;;;;;6068147;23;20101;-88
2023/07/19 12:23:26;;;;;;;10.73;0.65;;;;;;;;;;6066222;23;20272;-88
2023/07/19 12:25:51;;;;;;;2.58;0.32;;;;;;;;;;6067737;23;20002;-88
2023/07/19 12:28:22;;;;;;;1.05;0.60;;;;;;;;;;6070914;23;20084;-87
2023/07/19 12:30:47;;;;;;;0.95;0.45;;;;;;;;;;6093260;23;20671;-88
2023/07/19 12:33:13;;;;;;;1.58;0.43;;;;;;;;;;6069994;23;20042;-87
2023/07/19 12:35:38;;;;;;;0.70;0.40;;;;;;;;;;6068137;23;19999;-87
2023/07/19 12:38:03;;;;;;;1.23;0.50;;;;;;;;;;6068590;23;20051;-87
2023/07/19 12:40:30;;;;;;;3.20;0.80;;;;;;;;;;6068466;23;20018;-87
2023/07/19 12:42:56;;;;;;;1.20;0.63;;;;;;;;;;6069724;23;20065;-87
2023/07/19 12:45:23;;;;;;;2.00;0.70;;;;;;;;;;6044370;23;20014;-87
2023/07/19 12:47:49;;;;;;;2.33;0.70;;;;;;;;;;6042915;23;20010;-88
2023/07/19 12:50:14;;;;;;;1.23;0.75;;;;;;;;;;6069402;23;20423;-88
2023/07/19 12:52:39;;;;;;;3.22;0.63;;;;;;;;;;6043629;23;20003;-88
2023/07/19 12:55:05;;;;;;;2.13;0.88;;;;;;;;;;6067810;23;20062;-87
2023/07/19 12:57:30;;;;;;;1.45;0.70;;;;;;;;;;6067824;23;20006;-87
2023/07/19 12:59:55;;;;;;;2.50;0.70;;;;;;;;;;6043375;23;20058;-86
2023/07/19 13:02:21;;;;;;;0.82;0.60;;;;;;;;;;6043782;23;20003;-87
2023/07/19 13:04:46;;;;;;;1.75;0.73;;;;;;;;;;6067554;23;20007;-87
2023/07/19 13:07:14;;;;;;;1.70;0.85;;;;;;;;;;6068693;23;20098;-88
2023/07/19 13:09:42;;;;;;;4.57;0.80;;;;;;;;;;6068189;23;19995;-88
2023/07/19 13:12:12;;;;;;;2.53;0.80;;;;;;;;;;6043747;23;20413;-88
2023/07/19 13:14:39;;;;;;;2.33;1.00;;;;;;;;;;6043483;23;20317;-88
2023/07/19 13:17:05;;;;;;;3.08;0.90;;;;;;;;;;6067768;23;20293;-88
2023/07/19 13:19:30;;;;;;;5.97;0.90;;;;;;;;;;6043731;23;20009;-87
2023/07/19 13:21:55;;;;;;;2.15;0.98;;;;;;;;;;6043685;23;20145;-88
2023/07/19 13:24:20;;;;;;;2.75;0.90;;;;;;;;;;6067926;23;20003;-88
2023/07/19 13:26:46;;;;;;;3.72;0.90;;;;;;;;;;6067863;23;20003;-87
2023/07/19 13:29:12;;;;;;;1.35;0.73;;;;;;;;;;6043935;23;20010;-87
2023/07/19 13:31:37;;;;;;;4.22;1.17;;;;;;;;;;6067883;23;20027;-88
2023/07/19 13:34:03;;;;;;;2.03;0.60;;;;;;;;;;6069461;23;20011;-87
2023/07/19 13:36:30;;;;;;;2.05;0.70;;;;;;;;;;6067681;23;20070;-88
2023/07/19 13:38:56;;;;;;;3.55;0.90;;;;;;;;;;6068534;23;20077;-87
2023/07/19 13:41:21;;;;;;;5.88;0.68;;;;;;;;;;6044375;23;20014;-88
2023/07/19 13:43:47;;;;;;;2.83;1.10;;;;;;;;;;6053738;23;20006;-86
2023/07/19 13:46:12;;;;;;;2.70;0.90;;;;;;;;;;6069261;23;20009;-86
2023/07/19 13:48:37;;;;;;;1.38;0.90;;;;;;;;;;6067460;23;20002;-86
2023/07/19 13:51:03;;;;;;;2.70;0.93;;;;;;;;;;6069116;23;19999;-87
2023/07/19 13:53:29;;;;;;;3.67;1.27;;;;;;;;;;6092726;23;20010;-87
2023/07/19 13:55:55;;;;;;;1.88;1.15;;;;;;;;;;6068528;23;20066;-88
2023/07/19 13:58:20;;;;;;;3.67;0.90;;;;;;;;;;6092802;23;20329;-86
2023/07/19 14:00:46;;;;;;;4.35;1.75;;;;;;;;;;6091629;23;20003;-86
2023/07/19 14:03:12;;;;;;;1.75;0.75;;;;;;;;;;6072803;23;20026;-88
2023/07/19 14:05:38;;;;;;;2.33;1.13;;;;;;;;;;6068170;23;20454;-87
2023/07/19 14:08:04;;;;;;;4.50;1.50;;;;;;;;;;6067183;23;20098;-88
2023/07/19 14:10:29;;;;;;;2.65;1.45;;;;;;;;;;6068102;23;20327;-88
2023/07/19 14:12:55;;;;;;;5.20;1.77;;;;;;;;;;6068044;23;20388;-87
2023/07/19 14:15:21;;;;;;;5.03;1.88;;;;;;;;;;6069230;23;19995;-89
2023/07/19 14:17:46;;;;;;;3.75;1.73;;;;;;;;;;6067912;23;20507;-89
2023/07/19 14:20:11;;;;;;;3.38;1.00;;;;;;;;;;6067554;23;20002;-88
2023/07/19 14:22:37;;;;;;;2.13;1.08;;;;;;;;;;6068965;23;20044;-87
2023/07/19 14:25:03;;;;;;;3.22;0.80;;;;;;;;;;6066931;23;20002;-87
2023/07/19 14:27:28;;;;;;;4.32;1.30;;;;;;;;;;6067178;23;20351;-87
2023/07/19 14:29:53;;;;;;;1.92;0.90;;;;;;;;;;6067531;23;20432;-88
2023/07/19 14:32:19;;;;;;;2.17;0.90;;;;;;;;;;6067606;23;20090;-87
2023/07/19 14:34:44;;;;;;;3.45;1.05;;;;;;;;;;6069128;23;19994;-88
2023/07/19 14:37:10;;;;;;;3.70;1.40;;;;;;;;;;6066889;23;20006;-88